createdAt,value
2023-10-13T00:02:06.434Z,100603.22
2023-10-13T00:04:36.917Z,100591.84
2023-10-13T00:07:05.708Z,100590.09
2023-10-13T00:09:39.165Z,100584.84
2023-10-13T00:12:11.374Z,100583.06
2023-10-13T00:14:38.755Z,100588.34
2023-10-13T00:17:17.371Z,100577.84
2023-10-13T00:19:48.085Z,100575.22
2023-10-13T00:22:21.203Z,100567.34
2023-10-13T00:24:49.152Z,100566.47
2023-10-13T00:27:33.216Z,100571.69
2023-10-13T00:30:39.562Z,100569.94
2023-10-13T00:33:06.590Z,100575.19
2023-10-13T00:35:43.420Z,100571.69
2023-10-13T00:38:18.004Z,100575.19
2023-10-13T00:40:52.869Z,100574.31
2023-10-13T00:43:21.989Z,100564.69
2023-10-13T00:45:58.296Z,100562.09
2023-10-13T00:48:35.411Z,100554.22
2023-10-13T00:51:08.148Z,100553.34
2023-10-13T00:53:41.478Z,100545.50
2023-10-13T00:56:10.421Z,100549.00
2023-10-13T00:58:41.062Z,100550.75
2023-10-13T01:01:20.089Z,100552.50
2023-10-13T01:03:50.461Z,100543.75
2023-10-13T01:06:20.997Z,100546.38
2023-10-13T01:09:19.450Z,100556.88
2023-10-13T01:11:55.311Z,100559.47
2023-10-13T01:14:24.832Z,100555.16
2023-10-13T01:16:56.489Z,100549.88
2023-10-13T01:19:28.537Z,100547.25
2023-10-13T01:22:03.072Z,100542.91
2023-10-13T01:24:37.236Z,100547.28
2023-10-13T01:27:24.096Z,100544.66
2023-10-13T01:29:53.787Z,100549.91
2023-10-13T01:32:23.411Z,100550.75
2023-10-13T01:34:56.162Z,100556.03
2023-10-13T01:37:24.003Z,100560.41
2023-10-13T01:39:52.022Z,100554.28
2023-10-13T01:42:23.194Z,100561.28
2023-10-13T01:44:50.870Z,100555.16
2023-10-13T01:47:18.671Z,100549.91
2023-10-13T01:49:49.217Z,100551.66
2023-10-13T01:52:17.446Z,100549.03
2023-10-13T01:54:50.347Z,100555.16
2023-10-13T01:57:23.767Z,100548.16
2023-10-13T01:59:51.234Z,100560.41
2023-10-13T02:02:30.196Z,100559.53
2023-10-13T02:05:01.968Z,100543.78
2023-10-13T02:07:32.267Z,100548.16
2023-10-13T02:09:59.956Z,100542.91
2023-10-13T02:12:36.970Z,100535.91
2023-10-13T02:15:06.221Z,100524.53
2023-10-13T02:17:41.585Z,100525.41
2023-10-13T02:20:15.349Z,100521.06
2023-10-13T02:22:52.659Z,100511.44
2023-10-13T02:25:44.141Z,100505.31
2023-10-13T02:28:15.273Z,100508.81
2023-10-13T02:30:49.931Z,100512.28
2023-10-13T02:33:23.532Z,100510.53
2023-10-13T02:35:56.725Z,100508.81
2023-10-13T02:38:50.655Z,100508.81
2023-10-13T02:41:27.377Z,100507.03
2023-10-13T02:43:55.962Z,100496.53
2023-10-13T02:46:24.476Z,100500.91
2023-10-13T02:48:54.883Z,100502.66
2023-10-13T02:51:26.859Z,100499.16
2023-10-13T02:53:54.130Z,100500.91
2023-10-13T02:56:24.511Z,100487.78
2023-10-13T02:59:06.703Z,100487.78
2023-10-13T03:01:37.632Z,100490.41
2023-10-13T03:04:09.900Z,100486.91
2023-10-13T03:06:41.415Z,100478.16
2023-10-13T03:09:30.089Z,100478.16
2023-10-13T03:11:57.174Z,100474.66
2023-10-13T03:14:25.903Z,100456.28
2023-10-13T03:17:10.469Z,100452.78
2023-10-13T03:19:40.369Z,100452.78
2023-10-13T03:22:12.717Z,100451.91
2023-10-13T03:24:46.818Z,100449.28
2023-10-13T03:27:23.965Z,100445.78
2023-10-13T03:29:56.047Z,100437.91
2023-10-13T03:32:27.692Z,100423.94
2023-10-13T03:35:01.655Z,100437.91
2023-10-13T03:37:39.482Z,100427.38
2023-10-13T03:40:23.979Z,100422.13
2023-10-13T03:43:13.410Z,100417.75
2023-10-13T03:45:53.298Z,100415.97
2023-10-13T03:48:27.301Z,100416.84
2023-10-13T03:51:09.252Z,100412.47
2023-10-13T03:53:51.375Z,100412.47
2023-10-13T03:56:31.152Z,100415.97
2023-10-13T03:59:26.678Z,100411.59
2023-10-13T04:01:53.742Z,100409.84
2023-10-13T04:04:59.914Z,100403.72
2023-10-13T04:07:27.040Z,100394.97
2023-10-13T04:10:11.734Z,100397.59
2023-10-13T04:12:57.378Z,100401.09
2023-10-13T04:15:24.844Z,100399.34
2023-10-13T04:17:52.224Z,100406.34
2023-10-13T04:20:30.627Z,100405.47
2023-10-13T04:23:00.166Z,100406.28
2023-10-13T04:25:44.685Z,100395.78
2023-10-13T04:28:35.242Z,100394.03
2023-10-13T04:31:13.305Z,100378.28
2023-10-13T04:34:03.476Z,100369.53
2023-10-13T04:36:30.460Z,100380.00
2023-10-13T04:39:01.936Z,100373.00
2023-10-13T04:41:43.029Z,100367.75
2023-10-13T04:44:33.280Z,100356.38
2023-10-13T04:47:01.496Z,100355.53
2023-10-13T04:49:36.706Z,100355.53
2023-10-13T04:52:12.376Z,100355.53
2023-10-13T04:54:46.869Z,100350.28
2023-10-13T04:57:36.158Z,100362.53
2023-10-13T05:00:11.879Z,100353.78
2023-10-13T05:02:40.778Z,100346.75
2023-10-13T05:05:19.396Z,100352.00
2023-10-13T05:08:05.478Z,100355.50
2023-10-13T05:10:53.987Z,100354.56
2023-10-13T05:13:39.680Z,100358.91
2023-10-13T05:16:25.757Z,100354.50
2023-10-13T05:19:11.581Z,100358.88
2023-10-13T05:21:57.930Z,100349.19
2023-10-13T05:24:43.646Z,100352.66
2023-10-13T05:27:29.367Z,100347.38
2023-10-13T05:30:14.967Z,100349.13
2023-10-13T05:33:00.393Z,100345.56
2023-10-13T05:35:46.336Z,100343.84
2023-10-13T05:38:31.898Z,100348.19
2023-10-13T05:41:25.481Z,100335.94
2023-10-13T05:44:11.887Z,100355.19
2023-10-13T05:46:39.312Z,100345.56
2023-10-13T05:49:18.052Z,100342.06
2023-10-13T05:51:59.252Z,100350.81
2023-10-13T05:54:45.439Z,100352.53
2023-10-13T05:57:41.058Z,100347.25
2023-10-13T06:00:27.176Z,100347.19
2023-10-13T06:03:12.823Z,100339.25
2023-10-13T06:05:58.571Z,100330.47
2023-10-13T06:08:44.089Z,100339.13
2023-10-13T06:11:29.783Z,100330.31
2023-10-13T06:14:15.355Z,100324.09
2023-10-13T06:17:00.967Z,100321.38
2023-10-13T06:19:47.008Z,100320.22
2023-10-13T06:22:32.527Z,100311.88
2023-10-13T06:25:18.109Z,100317.41
2023-10-13T06:28:06.268Z,100313.84
2023-10-13T06:30:34.394Z,100318.09
2023-10-13T06:33:02.562Z,100319.53
2023-10-13T06:35:30.255Z,100317.78
2023-10-13T06:38:01.994Z,100318.91
2023-10-13T06:40:35.128Z,100315.78
2023-10-13T06:43:18.034Z,100318.75
2023-10-13T06:45:52.035Z,100320.09
2023-10-13T06:48:21.146Z,100315.59
2023-10-13T06:50:53.350Z,100326.75
2023-10-13T06:53:21.232Z,100311.50
2023-10-13T06:55:49.015Z,100311.72
2023-10-13T06:58:18.816Z,100312.16
2023-10-13T07:00:56.176Z,100304.03
2023-10-13T07:03:26.736Z,100300.75
2023-10-13T07:05:56.232Z,100314.06
2023-10-13T07:08:24.921Z,100308.75
2023-10-13T07:11:19.130Z,100300.53
2023-10-13T07:13:52.408Z,100317.22
2023-10-13T07:16:29.974Z,100312.13
2023-10-13T07:19:05.474Z,100311.16
2023-10-13T07:21:35.015Z,100298.81
2023-10-13T07:24:09.112Z,100304.06
2023-10-13T07:26:47.977Z,100298.34
2023-10-13T07:29:15.841Z,100303.13
2023-10-13T07:31:53.378Z,100306.56
2023-10-13T07:34:43.298Z,100297.47
2023-10-13T07:37:27.379Z,100303.00
2023-10-13T07:40:30.705Z,100294.31
2023-10-13T07:43:24.741Z,100289.03
2023-10-13T07:47:00.593Z,100284.06
2023-10-13T07:50:11.514Z,100281.56
2023-10-13T07:53:45.832Z,100290.28
2023-10-13T07:56:53.606Z,100289.34
2023-10-13T07:59:32.046Z,100285.22
2023-10-13T08:02:40.320Z,100283.66
2023-10-13T08:22:13.438Z,100266.66
2023-10-13T08:24:00.731Z,100261.91
2023-10-13T08:32:41.229Z,100256.69
2023-10-13T08:36:58.802Z,100251.38
2023-10-13T08:52:48.274Z,100230.88
2023-10-13T09:00:31.514Z,100214.53
2023-10-13T09:09:10.377Z,100212.94
2023-10-13T09:31:54.182Z,100187.44
2023-10-13T09:35:41.017Z,100182.78
2023-10-13T10:31:05.134Z,100114.44
2023-10-13T10:46:37.095Z,100119.97
2023-10-13T10:54:15.782Z,100086.66
2023-10-13T11:01:22.915Z,100069.97
2023-10-13T11:04:30.166Z,100063.00
2023-10-13T11:07:05.796Z,100061.97
2023-10-13T11:09:47.959Z,100039.81
2023-10-13T11:12:57.768Z,100035.25
2023-10-13T11:16:03.406Z,100048.31
2023-10-13T11:18:45.957Z,100038.38
2023-10-13T11:21:26.449Z,100023.16
2023-10-13T11:24:44.366Z,100041.50
2023-10-13T11:28:44.402Z,100020.97
2023-10-13T11:44:02.092Z,100001.94
2023-10-13T11:55:41.076Z,99997.94
2023-10-13T11:58:44.279Z,99983.44
2023-10-13T12:13:18.751Z,99964.75
2023-10-13T12:20:29.729Z,99952.50
2023-10-13T12:23:25.051Z,99944.22
2023-10-13T12:26:34.309Z,99941.34
2023-10-13T12:29:34.964Z,99936.59
2023-10-13T12:32:33.081Z,99931.72
2023-10-13T12:38:45.018Z,99924.09
2023-10-13T12:44:52.337Z,99922.72
2023-10-13T12:47:55.817Z,99917.13
2023-10-13T12:51:08.703Z,99905.34
2023-10-13T12:53:50.163Z,99890.00
2023-10-13T13:00:38.828Z,99890.09
2023-10-13T13:04:01.175Z,99886.25
2023-10-13T13:07:11.269Z,99874.47
2023-10-13T13:09:43.957Z,99866.31
2023-10-13T13:12:39.533Z,99861.88
2023-10-13T13:15:21.071Z,99855.31
2023-10-13T13:17:55.512Z,99851.34
2023-10-13T13:20:41.388Z,99843.88
2023-10-13T13:23:22.689Z,99850.47
2023-10-13T13:33:32.658Z,99839.63
2023-10-13T13:36:35.596Z,99842.91
2023-10-13T13:39:20.037Z,99840.19
2023-10-13T13:53:49.895Z,99823.38
2023-10-13T14:10:19.933Z,99795.13
2023-10-13T14:31:35.728Z,99766.88
2023-10-13T14:34:49.668Z,99771.25
2023-10-13T14:38:07.944Z,99761.47
2023-10-13T14:49:15.420Z,99752.25
2023-10-13T14:52:22.586Z,99723.31
2023-10-13T14:55:15.839Z,99735.09
2023-10-13T14:58:29.184Z,99728.34
2023-10-13T15:01:55.420Z,99741.00
2023-10-13T15:05:07.906Z,99732.16
2023-10-13T15:15:20.731Z,99727.41
2023-10-13T15:18:32.609Z,99725.75
2023-10-13T15:21:16.621Z,99716.06
2023-10-13T15:24:38.097Z,99724.97
2023-10-13T15:31:24.680Z,99723.56
2023-10-13T15:34:33.745Z,99713.16
2023-10-13T15:37:57.512Z,99710.66
2023-10-13T15:41:28.080Z,99700.34
2023-10-13T15:44:56.388Z,99696.31
2023-10-13T15:48:20.627Z,99685.09
2023-10-13T15:51:45.428Z,99683.50
2023-10-13T15:58:24.593Z,99688.38
2023-10-13T16:01:02.538Z,99685.13
2023-10-13T16:17:19.173Z,99653.25
2023-10-13T16:20:09.432Z,99654.31
2023-10-13T16:22:41.876Z,99650.03
2023-10-13T16:34:27.531Z,99637.31
2023-10-13T16:44:10.601Z,99643.41
2023-10-13T16:51:54.435Z,99639.06
2023-10-13T17:18:42.544Z,99643.28
2023-10-13T17:21:40.131Z,99652.81
2023-10-13T17:24:53.482Z,99640.19
2023-10-13T17:29:01.761Z,99646.22
2023-10-13T17:32:08.146Z,99645.06
2023-10-13T17:46:20.450Z,99643.22
2023-10-13T17:48:49.753Z,99643.94
2023-10-13T17:51:21.969Z,99646.34
2023-10-13T17:53:57.565Z,99645.41
2023-10-13T17:57:37.470Z,99640.91
2023-10-13T18:00:31.550Z,99639.91
2023-10-13T18:07:09.925Z,99637.38
2023-10-13T18:10:48.048Z,99633.06
2023-10-13T18:13:20.383Z,99625.97
2023-10-13T18:32:44.384Z,99614.88
2023-10-13T18:47:48.109Z,99609.44
2023-10-13T18:50:46.876Z,99607.47
2023-10-13T19:01:06.074Z,99601.69
2023-10-13T19:04:17.941Z,99595.44
2023-10-13T19:14:11.995Z,99591.69
2023-10-13T19:17:04.920Z,99596.06
2023-10-13T19:20:04.426Z,99585.44
2023-10-13T19:23:12.444Z,99582.78
2023-10-13T19:26:21.099Z,99581.91
2023-10-13T19:46:42.502Z,99565.38
2023-10-13T19:52:54.314Z,99575.31
2023-10-13T20:00:45.737Z,99566.72
2023-10-13T20:17:37.159Z,99557.13
2023-10-13T20:35:32.883Z,99529.41
2023-10-13T21:17:33.384Z,99479.69
2023-10-13T21:40:39.159Z,99444.63
2023-10-13T21:44:03.139Z,99444.78
2023-10-13T21:47:33.781Z,99434.44
2023-10-13T21:52:17.904Z,99433.84
2023-10-13T21:59:40.619Z,99419.28
2023-10-13T22:04:02.536Z,99403.56
2023-10-13T22:27:27.398Z,99352.19
2023-10-13T23:16:24.308Z,99328.59
